This is the latest recevied weather packets stored in our database for station/object DM3FAM-13. If no packets are shown the sender has not sent any weather packets the latest 1 day(s).
| Time | Temp. | Humidity | Pressure | Rain* | Wind** | Luminosity | Snow |
|---|---|---|---|---|---|---|---|
| 1777989031 | 17.22° C | 73% | 1007.8 hPa | 0 mm | 0.45 m/s, 210° | 300 W/m² | - |
| 1777988430 | 17.22° C | 73% | 1008 hPa | 0 mm | 0.89 m/s, 197° | 186 W/m² | - |
| 1777987833 | 17.78° C | 71% | 1008 hPa | 0 mm | 0.45 m/s, 225° | 115 W/m² | - |
| 1777987230 | 17.22° C | 74% | 1008.1 hPa | 0 mm | 0 m/s | 505 W/m² | - |
| 1777986630 | 17.22° C | 76% | 1008.1 hPa | 0 mm | 0 m/s | 272 W/m² | - |
| 1777985430 | 15.56° C | 80% | 1008.4 hPa | 0 mm | 0 m/s | 135 W/m² | - |
| 1777984830 | 15.56° C | 80% | 1008.5 hPa | 0 mm | 0 m/s | 101 W/m² | - |
| 1777984230 | 15° C | 82% | 1008.6 hPa | 0 mm | 0.45 m/s, 201° | 178 W/m² | - |
| 1777983630 | 15° C | 84% | 1008.6 hPa | 0 mm | 0.45 m/s, 187° | 142 W/m² | - |
| 1777983030 | 15° C | 84% | 1008.7 hPa | 0 mm | 0.45 m/s, 199° | 141 W/m² | - |
| 1777982431 | 15° C | 85% | 1008.8 hPa | 0 mm | 0.45 m/s, 207° | 131 W/m² | - |
| 1777981831 | 15° C | 84% | 1008.8 hPa | 0 mm | 0.45 m/s, 204° | 121 W/m² | - |
| 1777981230 | 15° C | 83% | 1008.9 hPa | 0 mm | 0.45 m/s, 198° | 124 W/m² | - |
| 1777980631 | 15° C | 84% | 1008.9 hPa | 0 mm | 0.45 m/s, 211° | 125 W/m² | - |
| 1777980030 | 15° C | 84% | 1009.1 hPa | 0 mm | 0.89 m/s, 187° | 152 W/m² | - |
| 1777979430 | 15° C | 83% | 1009.1 hPa | 0 mm | 0.89 m/s, 173° | 128 W/m² | - |
| 1777978830 | 15° C | 83% | 1009.1 hPa | 0 mm | 0.89 m/s, 177° | 127 W/m² | - |
| 1777978230 | 15° C | 82% | 1009 hPa | 0 mm | 0.89 m/s, 192° | 119 W/m² | - |
| 1777977630 | 14.44° C | 82% | 1009.1 hPa | 0 mm | 0.45 m/s, 211° | 139 W/m² | - |
| 1777977030 | 14.44° C | 82% | 1009.1 hPa | 0 mm | 0 m/s | 126 W/m² | - |
| 1777976430 | 14.44° C | 82% | 1009.2 hPa | 0 mm | 0.89 m/s, 175° | 132 W/m² | - |
| 1777975830 | 14.44° C | 83% | 1009.2 hPa | 0 mm | 0.45 m/s, 187° | 151 W/m² | - |
| 1777975231 | 14.44° C | 84% | 1009.2 hPa | 0 mm | 0.45 m/s, 198° | 145 W/m² | - |
| 1777974630 | 14.44° C | 83% | 1009.1 hPa | 0 mm | 0.45 m/s, 191° | 108 W/m² | - |
| 1777974030 | 14.44° C | 81% | 1009.1 hPa | 0 mm | 0 m/s | 89 W/m² | - |
* Rain latest hour (hover to see other rain measurements)
** Current wind speed in m/s (hover to see current wind gust speed)